Cambre, Spain
Current Conditions -  °F | °C
As of 7:30 PM on Saturday 25 Oct 2014 (Local Time) from LECO Reporting Station
Clear Clear  
Wind Chill: 70°   Ceiling: Unl
Heat Index: 70°   Visibility: 6mi
Dew Point: 61°   Wind: 1mph
Humidity: 73%   Direction: NA
Pressure: 30.09"   Gusts: NA
Location:  43.29°N, 8.35°W
Report Text: LECO 251730Z VRB01KT CAVOK 21/16 Q1019 NOSIG
Loading
Personal Weather Stations






























Interactive Weather Map
Tropical Storm Tracking
New forecast layout! Learn more

10-Day Weather Forecast

Advertisements
Track Severe Weather on mobile